sensor_id;sensor_type;location;lat;lon;timestamp;P1;durP1;ratioP1;P2;durP2;ratioP2
53927;SDS011;39837;47.630;18.822;2024-03-02T00:04:07;53.25;;;32.88;;
53927;SDS011;39837;47.630;18.822;2024-03-02T00:06:54;56.17;;;33.70;;
53927;SDS011;39837;47.630;18.822;2024-03-02T00:09:39;67.70;;;35.15;;
53927;SDS011;39837;47.630;18.822;2024-03-02T00:12:23;57.40;;;33.97;;
53927;SDS011;39837;47.630;18.822;2024-03-02T00:18:32;48.90;;;33.10;;
53927;SDS011;39837;47.630;18.822;2024-03-02T00:21:17;54.05;;;32.53;;
53927;SDS011;39837;47.630;18.822;2024-03-02T00:27:18;57.63;;;33.35;;
53927;SDS011;39837;47.630;18.822;2024-03-02T00:33:15;56.10;;;32.00;;
53927;SDS011;39837;47.630;18.822;2024-03-02T00:36:00;67.78;;;33.83;;
53927;SDS011;39837;47.630;18.822;2024-03-02T00:38:48;55.47;;;33.28;;
53927;SDS011;39837;47.630;18.822;2024-03-02T00:41:33;63.70;;;33.22;;
53927;SDS011;39837;47.630;18.822;2024-03-02T00:44:17;53.65;;;32.83;;
53927;SDS011;39837;47.630;18.822;2024-03-02T00:47:03;50.30;;;31.45;;
53927;SDS011;39837;47.630;18.822;2024-03-02T00:49:47;49.70;;;32.53;;
53927;SDS011;39837;47.630;18.822;2024-03-02T00:52:31;55.30;;;33.47;;
53927;SDS011;39837;47.630;18.822;2024-03-02T00:55:16;53.17;;;31.58;;
53927;SDS011;39837;47.630;18.822;2024-03-02T00:58:01;50.25;;;33.10;;
53927;SDS011;39837;47.630;18.822;2024-03-02T01:00:45;54.00;;;32.00;;
53927;SDS011;39837;47.630;18.822;2024-03-02T01:03:30;49.33;;;32.17;;
53927;SDS011;39837;47.630;18.822;2024-03-02T01:06:15;56.00;;;32.15;;
53927;SDS011;39837;47.630;18.822;2024-03-02T01:09:00;48.88;;;30.38;;
53927;SDS011;39837;47.630;18.822;2024-03-02T01:11:44;48.88;;;31.17;;
53927;SDS011;39837;47.630;18.822;2024-03-02T01:14:28;54.88;;;31.63;;
53927;SDS011;39837;47.630;18.822;2024-03-02T01:17:12;51.85;;;31.60;;
53927;SDS011;39837;47.630;18.822;2024-03-02T01:19:57;44.70;;;29.38;;
53927;SDS011;39837;47.630;18.822;2024-03-02T01:22:41;53.05;;;30.95;;
53927;SDS011;39837;47.630;18.822;2024-03-02T01:25:25;54.33;;;30.15;;
53927;SDS011;39837;47.630;18.822;2024-03-02T01:28:09;49.67;;;30.92;;
53927;SDS011;39837;47.630;18.822;2024-03-02T01:30:53;51.10;;;31.63;;
53927;SDS011;39837;47.630;18.822;2024-03-02T01:33:37;56.70;;;30.00;;
53927;SDS011;39837;47.630;18.822;2024-03-02T01:36:21;53.10;;;31.23;;
53927;SDS011;39837;47.630;18.822;2024-03-02T01:39:05;52.75;;;29.92;;
53927;SDS011;39837;47.630;18.822;2024-03-02T01:41:53;51.92;;;31.38;;
53927;SDS011;39837;47.630;18.822;2024-03-02T01:44:36;55.40;;;31.67;;
53927;SDS011;39837;47.630;18.822;2024-03-02T01:47:20;51.95;;;30.42;;
53927;SDS011;39837;47.630;18.822;2024-03-02T01:50:05;55.28;;;31.20;;
53927;SDS011;39837;47.630;18.822;2024-03-02T01:52:49;48.35;;;29.17;;
53927;SDS011;39837;47.630;18.822;2024-03-02T01:55:33;46.13;;;28.83;;
53927;SDS011;39837;47.630;18.822;2024-03-02T01:58:18;51.70;;;31.15;;
53927;SDS011;39837;47.630;18.822;2024-03-02T02:01:03;53.58;;;30.15;;
53927;SDS011;39837;47.630;18.822;2024-03-02T02:03:47;55.97;;;30.63;;
53927;SDS011;39837;47.630;18.822;2024-03-02T02:06:31;49.92;;;29.75;;
53927;SDS011;39837;47.630;18.822;2024-03-02T02:09:14;52.67;;;31.48;;
53927;SDS011;39837;47.630;18.822;2024-03-02T02:11:59;54.55;;;32.85;;
53927;SDS011;39837;47.630;18.822;2024-03-02T02:14:49;48.85;;;28.80;;
53927;SDS011;39837;47.630;18.822;2024-03-02T02:17:37;49.28;;;30.10;;
53927;SDS011;39837;47.630;18.822;2024-03-02T02:20:21;47.72;;;28.98;;
53927;SDS011;39837;47.630;18.822;2024-03-02T02:23:05;47.95;;;29.65;;
53927;SDS011;39837;47.630;18.822;2024-03-02T02:25:51;42.90;;;28.05;;
53927;SDS011;39837;47.630;18.822;2024-03-02T02:28:35;60.17;;;29.67;;
53927;SDS011;39837;47.630;18.822;2024-03-02T02:31:19;44.90;;;28.38;;
53927;SDS011;39837;47.630;18.822;2024-03-02T02:34:04;50.85;;;28.90;;
53927;SDS011;39837;47.630;18.822;2024-03-02T02:36:49;45.97;;;28.50;;
53927;SDS011;39837;47.630;18.822;2024-03-02T02:39:33;44.42;;;30.65;;
53927;SDS011;39837;47.630;18.822;2024-03-02T02:42:17;50.35;;;30.40;;
53927;SDS011;39837;47.630;18.822;2024-03-02T02:45:00;55.33;;;31.98;;
53927;SDS011;39837;47.630;18.822;2024-03-02T02:47:45;50.97;;;31.38;;
53927;SDS011;39837;47.630;18.822;2024-03-02T02:50:28;51.20;;;32.05;;
53927;SDS011;39837;47.630;18.822;2024-03-02T02:53:12;46.85;;;30.25;;
53927;SDS011;39837;47.630;18.822;2024-03-02T02:55:56;46.33;;;30.40;;
53927;SDS011;39837;47.630;18.822;2024-03-02T02:58:40;49.20;;;30.77;;
53927;SDS011;39837;47.630;18.822;2024-03-02T03:01:25;47.88;;;30.35;;
53927;SDS011;39837;47.630;18.822;2024-03-02T03:04:09;52.85;;;32.05;;
53927;SDS011;39837;47.630;18.822;2024-03-02T03:06:53;47.58;;;30.17;;
53927;SDS011;39837;47.630;18.822;2024-03-02T03:09:37;51.85;;;31.73;;
53927;SDS011;39837;47.630;18.822;2024-03-02T03:12:22;49.30;;;32.00;;
53927;SDS011;39837;47.630;18.822;2024-03-02T03:15:06;55.05;;;31.05;;
53927;SDS011;39837;47.630;18.822;2024-03-02T03:17:51;50.15;;;31.15;;
53927;SDS011;39837;47.630;18.822;2024-03-02T03:20:36;59.15;;;31.50;;
53927;SDS011;39837;47.630;18.822;2024-03-02T03:23:20;52.72;;;30.42;;
53927;SDS011;39837;47.630;18.822;2024-03-02T03:26:05;48.25;;;31.25;;
53927;SDS011;39837;47.630;18.822;2024-03-02T03:28:48;51.72;;;31.13;;
53927;SDS011;39837;47.630;18.822;2024-03-02T03:31:32;55.40;;;32.17;;
53927;SDS011;39837;47.630;18.822;2024-03-02T03:34:17;56.10;;;31.20;;
53927;SDS011;39837;47.630;18.822;2024-03-02T03:37:01;49.45;;;31.90;;
53927;SDS011;39837;47.630;18.822;2024-03-02T03:39:46;52.15;;;30.70;;
53927;SDS011;39837;47.630;18.822;2024-03-02T03:42:30;53.53;;;30.25;;
53927;SDS011;39837;47.630;18.822;2024-03-02T03:45:14;47.70;;;31.98;;
53927;SDS011;39837;47.630;18.822;2024-03-02T03:47:58;54.65;;;31.40;;
53927;SDS011;39837;47.630;18.822;2024-03-02T03:50:43;50.90;;;32.70;;
53927;SDS011;39837;47.630;18.822;2024-03-02T03:53:27;50.80;;;30.58;;
53927;SDS011;39837;47.630;18.822;2024-03-02T03:56:11;57.13;;;30.80;;
53927;SDS011;39837;47.630;18.822;2024-03-02T03:58:54;47.80;;;31.50;;
53927;SDS011;39837;47.630;18.822;2024-03-02T04:01:38;45.40;;;30.50;;
53927;SDS011;39837;47.630;18.822;2024-03-02T04:04:22;52.13;;;30.48;;
53927;SDS011;39837;47.630;18.822;2024-03-02T04:07:06;56.17;;;32.00;;
53927;SDS011;39837;47.630;18.822;2024-03-02T04:09:50;52.05;;;31.23;;
53927;SDS011;39837;47.630;18.822;2024-03-02T04:12:35;58.05;;;32.40;;
53927;SDS011;39837;47.630;18.822;2024-03-02T04:15:20;49.93;;;34.90;;
53927;SDS011;39837;47.630;18.822;2024-03-02T04:18:04;56.15;;;31.13;;
53927;SDS011;39837;47.630;18.822;2024-03-02T04:20:48;52.92;;;32.60;;
53927;SDS011;39837;47.630;18.822;2024-03-02T04:23:33;45.95;;;30.77;;
53927;SDS011;39837;47.630;18.822;2024-03-02T04:26:17;54.17;;;32.53;;
53927;SDS011;39837;47.630;18.822;2024-03-02T04:29:05;66.50;;;35.63;;
53927;SDS011;39837;47.630;18.822;2024-03-02T04:31:49;53.17;;;33.05;;
53927;SDS011;39837;47.630;18.822;2024-03-02T04:34:33;54.50;;;31.98;;
53927;SDS011;39837;47.630;18.822;2024-03-02T04:37:17;49.00;;;32.30;;
53927;SDS011;39837;47.630;18.822;2024-03-02T04:40:01;55.40;;;31.50;;
53927;SDS011;39837;47.630;18.822;2024-03-02T04:42:45;47.92;;;32.67;;
53927;SDS011;39837;47.630;18.822;2024-03-02T04:45:29;53.38;;;32.13;;
53927;SDS011;39837;47.630;18.822;2024-03-02T04:48:13;53.30;;;33.17;;
53927;SDS011;39837;47.630;18.822;2024-03-02T04:50:58;53.30;;;32.72;;
53927;SDS011;39837;47.630;18.822;2024-03-02T04:53:41;55.50;;;32.50;;
53927;SDS011;39837;47.630;18.822;2024-03-02T04:56:25;57.08;;;34.10;;
53927;SDS011;39837;47.630;18.822;2024-03-02T04:59:16;53.00;;;32.83;;
53927;SDS011;39837;47.630;18.822;2024-03-02T05:02:01;54.90;;;34.67;;
53927;SDS011;39837;47.630;18.822;2024-03-02T05:04:45;58.42;;;34.13;;
53927;SDS011;39837;47.630;18.822;2024-03-02T05:07:29;53.40;;;35.03;;
53927;SDS011;39837;47.630;18.822;2024-03-02T05:10:13;64.30;;;36.15;;
53927;SDS011;39837;47.630;18.822;2024-03-02T05:12:58;58.13;;;34.42;;
53927;SDS011;39837;47.630;18.822;2024-03-02T05:15:43;63.08;;;37.50;;
53927;SDS011;39837;47.630;18.822;2024-03-02T05:18:28;49.60;;;32.70;;
53927;SDS011;39837;47.630;18.822;2024-03-02T05:21:12;52.58;;;35.63;;
53927;SDS011;39837;47.630;18.822;2024-03-02T05:23:56;60.55;;;36.22;;
53927;SDS011;39837;47.630;18.822;2024-03-02T05:26:40;54.15;;;35.60;;
53927;SDS011;39837;47.630;18.822;2024-03-02T05:29:24;60.58;;;35.13;;
53927;SDS011;39837;47.630;18.822;2024-03-02T05:32:09;55.60;;;35.15;;
53927;SDS011;39837;47.630;18.822;2024-03-02T05:34:53;54.97;;;35.35;;
53927;SDS011;39837;47.630;18.822;2024-03-02T05:37:36;58.63;;;34.90;;
53927;SDS011;39837;47.630;18.822;2024-03-02T05:40:21;55.97;;;35.80;;
53927;SDS011;39837;47.630;18.822;2024-03-02T05:43:04;62.28;;;37.42;;
53927;SDS011;39837;47.630;18.822;2024-03-02T05:45:49;56.92;;;35.42;;
53927;SDS011;39837;47.630;18.822;2024-03-02T05:48:33;57.60;;;35.40;;
53927;SDS011;39837;47.630;18.822;2024-03-02T05:51:18;52.15;;;33.72;;
53927;SDS011;39837;47.630;18.822;2024-03-02T05:54:01;55.33;;;34.33;;
53927;SDS011;39837;47.630;18.822;2024-03-02T05:56:46;58.80;;;34.72;;
53927;SDS011;39837;47.630;18.822;2024-03-02T05:59:30;59.65;;;34.53;;
53927;SDS011;39837;47.630;18.822;2024-03-02T06:02:14;55.10;;;35.22;;
53927;SDS011;39837;47.630;18.822;2024-03-02T06:04:58;49.80;;;32.60;;
53927;SDS011;39837;47.630;18.822;2024-03-02T06:07:42;55.92;;;33.97;;
53927;SDS011;39837;47.630;18.822;2024-03-02T06:10:26;53.42;;;35.65;;
53927;SDS011;39837;47.630;18.822;2024-03-02T06:13:11;53.45;;;35.42;;
53927;SDS011;39837;47.630;18.822;2024-03-02T06:15:55;54.03;;;35.78;;
53927;SDS011;39837;47.630;18.822;2024-03-02T06:18:39;55.83;;;35.13;;
53927;SDS011;39837;47.630;18.822;2024-03-02T06:21:24;56.13;;;34.58;;
53927;SDS011;39837;47.630;18.822;2024-03-02T06:24:08;57.13;;;35.95;;
53927;SDS011;39837;47.630;18.822;2024-03-02T06:26:52;58.78;;;36.00;;
53927;SDS011;39837;47.630;18.822;2024-03-02T06:29:36;61.85;;;35.28;;
53927;SDS011;39837;47.630;18.822;2024-03-02T06:32:20;60.33;;;37.80;;
53927;SDS011;39837;47.630;18.822;2024-03-02T06:35:04;58.28;;;36.28;;
53927;SDS011;39837;47.630;18.822;2024-03-02T06:37:49;59.05;;;35.80;;
53927;SDS011;39837;47.630;18.822;2024-03-02T06:40:34;59.88;;;37.13;;
53927;SDS011;39837;47.630;18.822;2024-03-02T06:43:21;62.38;;;39.47;;
53927;SDS011;39837;47.630;18.822;2024-03-02T06:46:08;60.22;;;37.65;;
53927;SDS011;39837;47.630;18.822;2024-03-02T06:48:53;56.90;;;37.00;;
53927;SDS011;39837;47.630;18.822;2024-03-02T06:51:37;66.13;;;38.25;;
53927;SDS011;39837;47.630;18.822;2024-03-02T06:54:21;62.00;;;38.70;;
53927;SDS011;39837;47.630;18.822;2024-03-02T06:57:05;64.10;;;40.33;;
53927;SDS011;39837;47.630;18.822;2024-03-02T06:59:49;64.90;;;38.83;;
53927;SDS011;39837;47.630;18.822;2024-03-02T07:02:38;59.50;;;37.35;;
53927;SDS011;39837;47.630;18.822;2024-03-02T07:05:24;56.92;;;37.15;;
53927;SDS011;39837;47.630;18.822;2024-03-02T07:08:08;60.08;;;38.67;;
53927;SDS011;39837;47.630;18.822;2024-03-02T07:10:52;62.38;;;38.97;;
53927;SDS011;39837;47.630;18.822;2024-03-02T07:13:36;58.15;;;39.20;;
53927;SDS011;39837;47.630;18.822;2024-03-02T07:16:20;62.53;;;39.08;;
53927;SDS011;39837;47.630;18.822;2024-03-02T07:19:11;58.67;;;37.78;;
53927;SDS011;39837;47.630;18.822;2024-03-02T07:21:56;59.35;;;37.88;;
53927;SDS011;39837;47.630;18.822;2024-03-02T07:24:40;61.25;;;39.80;;
53927;SDS011;39837;47.630;18.822;2024-03-02T07:27:25;56.17;;;37.72;;
53927;SDS011;39837;47.630;18.822;2024-03-02T07:30:10;64.38;;;39.92;;
53927;SDS011;39837;47.630;18.822;2024-03-02T07:32:57;61.45;;;39.17;;
53927;SDS011;39837;47.630;18.822;2024-03-02T07:35:42;59.00;;;35.83;;
53927;SDS011;39837;47.630;18.822;2024-03-02T07:38:27;68.90;;;41.20;;
53927;SDS011;39837;47.630;18.822;2024-03-02T07:41:12;59.60;;;39.83;;
53927;SDS011;39837;47.630;18.822;2024-03-02T07:43:56;67.00;;;40.45;;
53927;SDS011;39837;47.630;18.822;2024-03-02T07:46:43;61.10;;;39.22;;
53927;SDS011;39837;47.630;18.822;2024-03-02T07:49:28;59.47;;;39.08;;
53927;SDS011;39837;47.630;18.822;2024-03-02T07:52:13;64.00;;;39.60;;
53927;SDS011;39837;47.630;18.822;2024-03-02T07:54:57;59.50;;;39.50;;
53927;SDS011;39837;47.630;18.822;2024-03-02T07:57:41;55.78;;;37.63;;
53927;SDS011;39837;47.630;18.822;2024-03-02T08:00:26;69.15;;;39.72;;
53927;SDS011;39837;47.630;18.822;2024-03-02T08:03:11;65.22;;;39.03;;
53927;SDS011;39837;47.630;18.822;2024-03-02T08:05:55;55.70;;;38.63;;
53927;SDS011;39837;47.630;18.822;2024-03-02T08:08:39;68.82;;;39.78;;
53927;SDS011;39837;47.630;18.822;2024-03-02T08:11:23;56.80;;;39.33;;
53927;SDS011;39837;47.630;18.822;2024-03-02T08:14:08;68.38;;;40.72;;
53927;SDS011;39837;47.630;18.822;2024-03-02T08:16:52;69.25;;;41.42;;
53927;SDS011;39837;47.630;18.822;2024-03-02T08:19:36;61.97;;;41.28;;
53927;SDS011;39837;47.630;18.822;2024-03-02T08:22:21;71.60;;;41.60;;
53927;SDS011;39837;47.630;18.822;2024-03-02T08:25:06;60.90;;;38.78;;
53927;SDS011;39837;47.630;18.822;2024-03-02T08:27:51;60.72;;;37.08;;
53927;SDS011;39837;47.630;18.822;2024-03-02T08:30:35;59.15;;;38.10;;
53927;SDS011;39837;47.630;18.822;2024-03-02T08:33:19;56.22;;;39.30;;
53927;SDS011;39837;47.630;18.822;2024-03-02T08:36:04;62.70;;;37.13;;
53927;SDS011;39837;47.630;18.822;2024-03-02T08:38:49;59.70;;;38.00;;
53927;SDS011;39837;47.630;18.822;2024-03-02T08:41:33;58.37;;;37.70;;
53927;SDS011;39837;47.630;18.822;2024-03-02T08:44:17;56.22;;;39.55;;
53927;SDS011;39837;47.630;18.822;2024-03-02T08:47:01;60.63;;;38.10;;
53927;SDS011;39837;47.630;18.822;2024-03-02T08:49:45;58.60;;;36.60;;
53927;SDS011;39837;47.630;18.822;2024-03-02T08:52:29;61.92;;;37.35;;
53927;SDS011;39837;47.630;18.822;2024-03-02T08:55:13;53.28;;;35.40;;
53927;SDS011;39837;47.630;18.822;2024-03-02T08:57:57;51.03;;;35.78;;
53927;SDS011;39837;47.630;18.822;2024-03-02T09:00:41;60.33;;;35.72;;
53927;SDS011;39837;47.630;18.822;2024-03-02T09:03:25;61.38;;;37.38;;
53927;SDS011;39837;47.630;18.822;2024-03-02T09:06:10;54.45;;;36.80;;
53927;SDS011;39837;47.630;18.822;2024-03-02T09:08:54;62.03;;;38.75;;
53927;SDS011;39837;47.630;18.822;2024-03-02T09:11:39;57.83;;;39.42;;
53927;SDS011;39837;47.630;18.822;2024-03-02T09:14:23;56.67;;;37.50;;
53927;SDS011;39837;47.630;18.822;2024-03-02T09:17:07;53.45;;;37.53;;
53927;SDS011;39837;47.630;18.822;2024-03-02T09:19:53;58.60;;;37.65;;
53927;SDS011;39837;47.630;18.822;2024-03-02T09:22:37;61.33;;;40.65;;
53927;SDS011;39837;47.630;18.822;2024-03-02T09:25:22;45.53;;;32.83;;
53927;SDS011;39837;47.630;18.822;2024-03-02T09:28:06;50.83;;;33.30;;
53927;SDS011;39837;47.630;18.822;2024-03-02T09:30:51;47.03;;;30.70;;
53927;SDS011;39837;47.630;18.822;2024-03-02T09:33:35;39.28;;;28.00;;
53927;SDS011;39837;47.630;18.822;2024-03-02T09:36:20;48.40;;;28.98;;
53927;SDS011;39837;47.630;18.822;2024-03-02T09:39:07;47.03;;;30.10;;
53927;SDS011;39837;47.630;18.822;2024-03-02T09:41:53;41.15;;;28.73;;
53927;SDS011;39837;47.630;18.822;2024-03-02T09:44:39;45.33;;;27.25;;
53927;SDS011;39837;47.630;18.822;2024-03-02T09:47:24;37.65;;;25.88;;
53927;SDS011;39837;47.630;18.822;2024-03-02T09:50:08;41.83;;;28.02;;
53927;SDS011;39837;47.630;18.822;2024-03-02T09:52:53;35.85;;;25.45;;
53927;SDS011;39837;47.630;18.822;2024-03-02T09:55:38;35.08;;;24.80;;
53927;SDS011;39837;47.630;18.822;2024-03-02T09:58:26;32.85;;;23.80;;
53927;SDS011;39837;47.630;18.822;2024-03-02T10:01:10;33.90;;;23.20;;
53927;SDS011;39837;47.630;18.822;2024-03-02T10:03:54;35.72;;;26.77;;
53927;SDS011;39837;47.630;18.822;2024-03-02T10:06:39;37.97;;;24.75;;
53927;SDS011;39837;47.630;18.822;2024-03-02T10:09:27;35.10;;;23.10;;
53927;SDS011;39837;47.630;18.822;2024-03-02T10:12:15;36.63;;;23.70;;
53927;SDS011;39837;47.630;18.822;2024-03-02T10:15:03;39.10;;;26.83;;
53927;SDS011;39837;47.630;18.822;2024-03-02T10:17:48;41.47;;;26.33;;
53927;SDS011;39837;47.630;18.822;2024-03-02T10:20:32;32.50;;;24.40;;
53927;SDS011;39837;47.630;18.822;2024-03-02T10:23:17;34.10;;;25.98;;
53927;SDS011;39837;47.630;18.822;2024-03-02T10:26:01;38.03;;;27.48;;
53927;SDS011;39837;47.630;18.822;2024-03-02T10:28:46;37.92;;;27.50;;
53927;SDS011;39837;47.630;18.822;2024-03-02T10:31:31;38.95;;;25.80;;
53927;SDS011;39837;47.630;18.822;2024-03-02T10:34:16;40.85;;;26.42;;
53927;SDS011;39837;47.630;18.822;2024-03-02T10:37:00;33.92;;;24.67;;
53927;SDS011;39837;47.630;18.822;2024-03-02T10:39:48;35.20;;;24.63;;
53927;SDS011;39837;47.630;18.822;2024-03-02T10:42:32;35.72;;;23.70;;
53927;SDS011;39837;47.630;18.822;2024-03-02T10:45:16;31.75;;;23.40;;
53927;SDS011;39837;47.630;18.822;2024-03-02T10:48:01;41.47;;;24.15;;
53927;SDS011;39837;47.630;18.822;2024-03-02T10:50:45;37.63;;;25.97;;
53927;SDS011;39837;47.630;18.822;2024-03-02T10:53:29;36.78;;;25.10;;
53927;SDS011;39837;47.630;18.822;2024-03-02T10:56:15;43.47;;;28.27;;
53927;SDS011;39837;47.630;18.822;2024-03-02T11:01:57;40.80;;;28.15;;
53927;SDS011;39837;47.630;18.822;2024-03-02T11:04:42;39.00;;;27.70;;
53927;SDS011;39837;47.630;18.822;2024-03-02T11:07:29;40.58;;;25.85;;
53927;SDS011;39837;47.630;18.822;2024-03-02T11:10:13;39.03;;;26.67;;
53927;SDS011;39837;47.630;18.822;2024-03-02T11:13:00;33.13;;;24.58;;
53927;SDS011;39837;47.630;18.822;2024-03-02T11:15:46;48.75;;;25.27;;
53927;SDS011;39837;47.630;18.822;2024-03-02T11:18:31;32.03;;;24.55;;
53927;SDS011;39837;47.630;18.822;2024-03-02T11:21:16;29.75;;;22.70;;
53927;SDS011;39837;47.630;18.822;2024-03-02T11:24:00;36.83;;;24.48;;
53927;SDS011;39837;47.630;18.822;2024-03-02T11:26:57;31.85;;;24.20;;
53927;SDS011;39837;47.630;18.822;2024-03-02T11:32:25;30.38;;;22.95;;
53927;SDS011;39837;47.630;18.822;2024-03-02T11:35:09;23.23;;;18.67;;
53927;SDS011;39837;47.630;18.822;2024-03-02T11:37:53;25.85;;;21.13;;
53927;SDS011;39837;47.630;18.822;2024-03-02T11:40:41;28.40;;;21.55;;
53927;SDS011;39837;47.630;18.822;2024-03-02T11:43:26;27.98;;;18.70;;
53927;SDS011;39837;47.630;18.822;2024-03-02T11:46:11;23.85;;;18.35;;
53927;SDS011;39837;47.630;18.822;2024-03-02T11:48:56;22.08;;;19.13;;
53927;SDS011;39837;47.630;18.822;2024-03-02T11:51:50;26.52;;;18.08;;
53927;SDS011;39837;47.630;18.822;2024-03-02T11:54:37;24.02;;;17.45;;
53927;SDS011;39837;47.630;18.822;2024-03-02T11:57:30;19.02;;;15.68;;
53927;SDS011;39837;47.630;18.822;2024-03-02T12:00:18;19.77;;;16.05;;
53927;SDS011;39837;47.630;18.822;2024-03-02T12:03:04;26.75;;;16.77;;
53927;SDS011;39837;47.630;18.822;2024-03-02T12:05:49;26.45;;;15.88;;
53927;SDS011;39837;47.630;18.822;2024-03-02T12:08:34;15.55;;;13.60;;
53927;SDS011;39837;47.630;18.822;2024-03-02T12:11:18;20.60;;;14.27;;
53927;SDS011;39837;47.630;18.822;2024-03-02T12:14:04;14.70;;;12.80;;
53927;SDS011;39837;47.630;18.822;2024-03-02T12:16:48;18.77;;;13.25;;
53927;SDS011;39837;47.630;18.822;2024-03-02T12:19:32;16.52;;;12.85;;
53927;SDS011;39837;47.630;18.822;2024-03-02T12:22:16;21.05;;;15.40;;
53927;SDS011;39837;47.630;18.822;2024-03-02T12:25:01;19.40;;;13.30;;
53927;SDS011;39837;47.630;18.822;2024-03-02T12:27:47;18.02;;;13.93;;
53927;SDS011;39837;47.630;18.822;2024-03-02T12:30:35;19.83;;;14.68;;
53927;SDS011;39837;47.630;18.822;2024-03-02T12:33:19;16.30;;;13.30;;
53927;SDS011;39837;47.630;18.822;2024-03-02T12:36:03;16.35;;;11.13;;
53927;SDS011;39837;47.630;18.822;2024-03-02T12:38:48;11.85;;;10.57;;
53927;SDS011;39837;47.630;18.822;2024-03-02T12:41:32;12.00;;;10.77;;
53927;SDS011;39837;47.630;18.822;2024-03-02T12:44:17;17.42;;;11.43;;
53927;SDS011;39837;47.630;18.822;2024-03-02T12:47:01;22.58;;;12.43;;
53927;SDS011;39837;47.630;18.822;2024-03-02T12:49:45;14.50;;;11.35;;
53927;SDS011;39837;47.630;18.822;2024-03-02T12:52:30;17.17;;;11.43;;
53927;SDS011;39837;47.630;18.822;2024-03-02T12:55:15;12.88;;;11.52;;
53927;SDS011;39837;47.630;18.822;2024-03-02T12:58:00;13.50;;;10.85;;
53927;SDS011;39837;47.630;18.822;2024-03-02T13:00:46;16.60;;;12.93;;
53927;SDS011;39837;47.630;18.822;2024-03-02T13:03:31;18.00;;;12.00;;
53927;SDS011;39837;47.630;18.822;2024-03-02T13:06:16;19.45;;;13.43;;
53927;SDS011;39837;47.630;18.822;2024-03-02T13:09:00;21.33;;;16.67;;
53927;SDS011;39837;47.630;18.822;2024-03-02T13:11:44;19.67;;;14.23;;
53927;SDS011;39837;47.630;18.822;2024-03-02T13:14:31;18.98;;;15.45;;
53927;SDS011;39837;47.630;18.822;2024-03-02T13:17:17;18.42;;;13.48;;
53927;SDS011;39837;47.630;18.822;2024-03-02T13:20:01;78.63;;;36.42;;
53927;SDS011;39837;47.630;18.822;2024-03-02T13:22:48;165.18;;;64.60;;
53927;SDS011;39837;47.630;18.822;2024-03-02T13:25:31;62.13;;;29.73;;
53927;SDS011;39837;47.630;18.822;2024-03-02T13:28:16;22.90;;;16.02;;
53927;SDS011;39837;47.630;18.822;2024-03-02T13:31:01;21.92;;;16.92;;
53927;SDS011;39837;47.630;18.822;2024-03-02T13:33:45;21.20;;;16.30;;
53927;SDS011;39837;47.630;18.822;2024-03-02T13:36:30;22.05;;;18.67;;
53927;SDS011;39837;47.630;18.822;2024-03-02T13:39:14;24.15;;;17.70;;
53927;SDS011;39837;47.630;18.822;2024-03-02T13:41:59;24.27;;;18.00;;
53927;SDS011;39837;47.630;18.822;2024-03-02T13:44:51;23.88;;;20.20;;
53927;SDS011;39837;47.630;18.822;2024-03-02T13:47:36;21.42;;;18.90;;
53927;SDS011;39837;47.630;18.822;2024-03-02T13:50:20;24.00;;;19.23;;
53927;SDS011;39837;47.630;18.822;2024-03-02T13:53:04;19.88;;;17.75;;
53927;SDS011;39837;47.630;18.822;2024-03-02T13:55:47;17.98;;;16.17;;
53927;SDS011;39837;47.630;18.822;2024-03-02T13:58:31;27.35;;;17.85;;
53927;SDS011;39837;47.630;18.822;2024-03-02T14:01:16;23.35;;;18.48;;
53927;SDS011;39837;47.630;18.822;2024-03-02T14:04:00;34.55;;;21.27;;
53927;SDS011;39837;47.630;18.822;2024-03-02T14:06:44;36.63;;;20.98;;
53927;SDS011;39837;47.630;18.822;2024-03-02T14:09:29;32.10;;;20.90;;
53927;SDS011;39837;47.630;18.822;2024-03-02T14:12:13;27.08;;;20.48;;
53927;SDS011;39837;47.630;18.822;2024-03-02T14:14:57;24.73;;;18.85;;
53927;SDS011;39837;47.630;18.822;2024-03-02T14:17:46;20.23;;;16.30;;
53927;SDS011;39837;47.630;18.822;2024-03-02T14:20:30;21.10;;;17.25;;
53927;SDS011;39837;47.630;18.822;2024-03-02T14:23:14;26.02;;;19.73;;
53927;SDS011;39837;47.630;18.822;2024-03-02T14:25:58;25.88;;;21.33;;
53927;SDS011;39837;47.630;18.822;2024-03-02T14:28:43;25.90;;;21.17;;
53927;SDS011;39837;47.630;18.822;2024-03-02T14:31:27;24.27;;;20.40;;
53927;SDS011;39837;47.630;18.822;2024-03-02T14:34:12;25.52;;;20.50;;
53927;SDS011;39837;47.630;18.822;2024-03-02T14:36:56;25.08;;;20.15;;
53927;SDS011;39837;47.630;18.822;2024-03-02T14:39:40;32.47;;;24.20;;
53927;SDS011;39837;47.630;18.822;2024-03-02T14:42:25;31.45;;;22.55;;
53927;SDS011;39837;47.630;18.822;2024-03-02T14:45:09;35.35;;;24.77;;
53927;SDS011;39837;47.630;18.822;2024-03-02T14:47:53;43.15;;;27.20;;
53927;SDS011;39837;47.630;18.822;2024-03-02T14:50:37;40.28;;;27.48;;
53927;SDS011;39837;47.630;18.822;2024-03-02T14:53:22;41.35;;;27.85;;
53927;SDS011;39837;47.630;18.822;2024-03-02T14:56:06;42.70;;;27.83;;
53927;SDS011;39837;47.630;18.822;2024-03-02T14:58:50;34.78;;;24.40;;
53927;SDS011;39837;47.630;18.822;2024-03-02T15:01:34;29.42;;;23.48;;
53927;SDS011;39837;47.630;18.822;2024-03-02T15:04:18;38.35;;;25.48;;
53927;SDS011;39837;47.630;18.822;2024-03-02T15:07:03;43.23;;;26.23;;
53927;SDS011;39837;47.630;18.822;2024-03-02T15:09:48;45.90;;;26.23;;
53927;SDS011;39837;47.630;18.822;2024-03-02T15:12:32;33.13;;;21.77;;
53927;SDS011;39837;47.630;18.822;2024-03-02T15:15:16;35.00;;;22.08;;
53927;SDS011;39837;47.630;18.822;2024-03-02T15:17:59;30.75;;;21.88;;
53927;SDS011;39837;47.630;18.822;2024-03-02T15:20:43;27.40;;;20.58;;
53927;SDS011;39837;47.630;18.822;2024-03-02T15:23:28;26.77;;;18.45;;
53927;SDS011;39837;47.630;18.822;2024-03-02T15:26:13;28.08;;;19.95;;
53927;SDS011;39837;47.630;18.822;2024-03-02T15:28:57;27.40;;;20.75;;
53927;SDS011;39837;47.630;18.822;2024-03-02T15:31:43;29.08;;;20.60;;
53927;SDS011;39837;47.630;18.822;2024-03-02T15:34:26;35.13;;;20.48;;
53927;SDS011;39837;47.630;18.822;2024-03-02T15:37:10;33.78;;;22.80;;
53927;SDS011;39837;47.630;18.822;2024-03-02T15:39:54;31.60;;;22.75;;
53927;SDS011;39837;47.630;18.822;2024-03-02T15:42:38;30.70;;;21.88;;
53927;SDS011;39837;47.630;18.822;2024-03-02T15:45:22;30.30;;;22.20;;
53927;SDS011;39837;47.630;18.822;2024-03-02T15:48:08;39.17;;;23.87;;
53927;SDS011;39837;47.630;18.822;2024-03-02T15:50:52;36.15;;;22.88;;
53927;SDS011;39837;47.630;18.822;2024-03-02T15:53:36;35.20;;;21.38;;
53927;SDS011;39837;47.630;18.822;2024-03-02T15:56:20;34.38;;;20.65;;
53927;SDS011;39837;47.630;18.822;2024-03-02T15:59:04;22.73;;;15.98;;
53927;SDS011;39837;47.630;18.822;2024-03-02T16:01:48;30.63;;;21.33;;
53927;SDS011;39837;47.630;18.822;2024-03-02T16:04:33;53.97;;;27.45;;
53927;SDS011;39837;47.630;18.822;2024-03-02T16:07:17;51.10;;;28.33;;